Time;durP1;ratioP1;P1;durP2;ratioP2;P2;SDS_P1;SDS_P2;PMS_P1;PMS_P2;Temp;Humidity;BMP_temperature;BMP_pressure;BME280_temperature;BME280_humidity;BME280_pressure;Samples;Min_cycle;Max_cycle;Signal;HPM_P1;HPM_P2
2022/04/22 00:01:14;;;;;;;5.88;4.38;;;10.70;99.70;;;;;;5094438;28;20024;-80
2022/04/22 00:03:40;;;;;;;6.60;4.85;;;10.60;99.90;;;;;;5095262;28;20103;-80
2022/04/22 00:06:06;;;;;;;7.90;5.40;;;10.60;99.90;;;;;;5094007;28;20270;-82
2022/04/22 00:08:31;;;;;;;9.85;5.07;;;10.60;99.90;;;;;;5095258;28;20094;-82
2022/04/22 00:13:43;;;;;;;7.63;4.68;;;10.60;99.90;;;;;;5095703;28;20027;-82
2022/04/22 00:16:09;;;;;;;7.43;4.72;;;10.60;99.90;;;;;;5094846;28;20031;-82
2022/04/22 00:18:35;;;;;;;8.50;4.85;;;10.50;99.90;;;;;;5095366;28;20445;-83
2022/04/22 00:21:00;;;;;;;9.07;5.18;;;10.50;99.90;;;;;;5095085;28;20035;-90
2022/04/22 00:23:27;;;;;;;7.95;5.50;;;10.40;99.90;;;;;;5095405;28;20035;-91
2022/04/22 00:25:54;;;;;;;8.02;5.18;;;10.40;99.90;;;;;;5095845;28;20027;-90
2022/04/22 00:28:20;;;;;;;8.23;5.53;;;10.40;99.90;;;;;;5096269;28;20024;-91
2022/04/22 00:30:47;;;;;;;10.15;5.30;;;10.40;99.90;;;;;;5098294;28;20024;-90
2022/04/22 00:33:13;;;;;;;8.90;5.45;;;10.40;99.90;;;;;;5096690;28;20023;-88
2022/04/22 00:35:39;;;;;;;8.32;5.20;;;10.30;99.90;;;;;;5095375;28;20036;-88
2022/04/22 00:38:05;;;;;;;10.68;5.32;;;10.30;99.90;;;;;;5094161;28;20373;-87
2022/04/22 00:40:31;;;;;;;8.57;5.15;;;10.30;99.90;;;;;;5094034;28;20031;-87
2022/04/22 00:42:56;;;;;;;7.40;5.00;;;10.30;99.90;;;;;;5093744;28;20024;-88
2022/04/22 00:45:22;;;;;;;9.57;5.40;;;10.30;99.90;;;;;;5094081;28;20107;-87
2022/04/22 00:47:48;;;;;;;9.52;5.30;;;10.20;99.90;;;;;;5096284;28;20024;-87
2022/04/22 00:50:13;;;;;;;9.60;5.10;;;10.20;99.90;;;;;;5095271;28;20032;-87
2022/04/22 00:52:39;;;;;;;9.88;5.95;;;10.20;99.90;;;;;;5095162;28;20023;-87
2022/04/22 00:55:06;;;;;;;12.05;5.78;;;10.10;99.90;;;;;;5093180;28;20449;-86
2022/04/22 00:57:33;;;;;;;8.77;5.40;;;10.10;99.90;;;;;;5093363;28;20366;-87
2022/04/22 00:59:59;;;;;;;12.18;6.13;;;10.10;99.90;;;;;;5093173;28;20028;-86
2022/04/22 01:02:25;;;;;;;11.48;6.13;;;10.10;99.90;;;;;;5094562;28;20106;-86
2022/04/22 01:10:20;;;;;;;10.25;5.80;;;10.00;99.90;;;;;;5094506;28;20097;-84
2022/04/22 01:12:46;;;;;;;11.23;6.70;;;10.00;99.90;;;;;;5093591;28;20453;-83
2022/04/22 01:15:11;;;;;;;11.63;6.28;;;10.00;99.90;;;;;;5093895;28;20036;-83
2022/04/22 01:17:37;;;;;;;10.20;6.43;;;10.00;99.90;;;;;;5094212;28;20020;-83
2022/04/22 01:20:04;;;;;;;9.55;6.32;;;10.00;99.90;;;;;;5092681;28;20459;-83
2022/04/22 01:22:30;;;;;;;11.70;6.07;;;10.00;99.90;;;;;;5093507;28;20027;-83
2022/04/22 01:24:58;;;;;;;8.75;5.93;;;10.00;99.90;;;;;;5092680;28;20024;-83
2022/04/22 01:27:27;;;;;;;15.50;6.80;;;10.00;99.90;;;;;;5094385;28;20116;-83
2022/04/22 01:29:53;;;;;;;11.32;6.72;;;10.00;99.90;;;;;;5092369;28;20039;-82
2022/04/22 01:32:18;;;;;;;12.60;7.18;;;9.90;99.90;;;;;;5093394;28;20085;-83
2022/04/22 01:34:44;;;;;;;15.25;7.18;;;9.90;99.90;;;;;;5093252;28;20115;-84
2022/04/22 01:37:10;;;;;;;11.85;6.80;;;9.90;99.90;;;;;;5093774;28;20020;-83
2022/04/22 01:39:36;;;;;;;12.48;6.78;;;9.90;99.90;;;;;;5093054;28;20063;-83
2022/04/22 01:42:01;;;;;;;13.25;7.13;;;9.90;99.90;;;;;;5092718;28;20020;-83
2022/04/22 01:44:28;;;;;;;12.45;6.63;;;10.00;99.90;;;;;;5093081;28;20031;-83
2022/04/22 01:46:55;;;;;;;12.73;6.63;;;9.90;99.90;;;;;;5093606;28;20020;-83
2022/04/22 01:49:20;;;;;;;12.88;7.07;;;9.90;99.90;;;;;;5092909;28;20437;-83
2022/04/22 01:51:46;;;;;;;12.27;7.10;;;9.90;99.90;;;;;;5093064;28;20048;-82
2022/04/22 01:54:12;;;;;;;10.57;6.75;;;9.90;99.90;;;;;;5093627;28;20031;-83
2022/04/22 01:56:38;;;;;;;13.88;6.97;;;9.90;99.90;;;;;;5093300;28;20055;-83
2022/04/22 01:59:03;;;;;;;13.05;7.32;;;9.90;99.90;;;;;;5093810;28;20427;-83
2022/04/22 02:01:29;;;;;;;13.30;7.28;;;9.90;99.90;;;;;;5092950;28;20027;-84
2022/04/22 02:03:55;;;;;;;15.18;8.18;;;9.90;99.90;;;;;;5093719;28;20027;-83
2022/04/22 02:06:21;;;;;;;12.95;6.70;;;9.90;99.90;;;;;;5093918;28;20016;-83
2022/04/22 02:08:47;;;;;;;13.32;7.38;;;9.90;99.90;;;;;;5092840;28;20107;-85
2022/04/22 02:11:13;;;;;;;12.35;6.82;;;9.90;99.90;;;;;;5092221;28;20020;-85
2022/04/22 02:13:38;;;;;;;12.55;7.53;;;9.90;99.90;;;;;;5092326;28;20054;-82
2022/04/22 02:16:06;;;;;;;18.27;7.75;;;9.80;99.90;;;;;;5092888;28;20059;-82
2022/04/22 02:18:36;;;;;;;12.15;6.80;;;9.80;99.90;;;;;;5092397;28;20035;-83
2022/04/22 02:21:03;;;;;;;11.18;7.00;;;9.80;99.90;;;;;;5092162;28;20030;-83
2022/04/22 02:23:29;;;;;;;12.30;7.05;;;9.80;99.90;;;;;;5092810;28;20067;-84
2022/04/22 02:25:55;;;;;;;13.25;7.38;;;9.70;99.90;;;;;;5093727;28;20032;-84
2022/04/22 02:28:33;;;;;;;14.02;7.38;;;9.70;99.90;;;;;;5093573;28;20035;-83
2022/04/22 02:31:07;;;;;;;13.10;7.30;;;9.70;99.90;;;;;;5092422;28;20104;-82
2022/04/22 02:33:34;;;;;;;14.80;6.60;;;9.60;99.90;;;;;;5095254;28;20119;-82
2022/04/22 02:36:00;;;;;;;15.93;7.75;;;9.60;99.90;;;;;;5096877;28;20025;-82
2022/04/22 02:38:30;;;;;;;13.18;6.85;;;9.60;99.90;;;;;;5097400;28;20357;-83
2022/04/22 02:46:27;;;;;;;14.30;7.55;;;9.50;99.90;;;;;;5097664;28;20101;-83
2022/04/22 02:48:59;;;;;;;15.55;7.78;;;9.50;99.90;;;;;;5096297;28;20020;-83
2022/04/22 02:51:26;;;;;;;15.27;8.43;;;9.50;99.90;;;;;;5097225;28;20494;-83
2022/04/22 02:53:52;;;;;;;13.70;8.00;;;9.40;99.90;;;;;;5097010;28;20023;-82
2022/04/22 02:56:20;;;;;;;16.98;8.30;;;9.40;99.90;;;;;;5096434;28;20063;-84
2022/04/22 02:58:46;;;;;;;12.68;7.68;;;9.30;99.90;;;;;;5095860;28;20075;-84
2022/04/22 03:01:14;;;;;;;13.85;7.97;;;9.30;99.90;;;;;;5095544;28;20441;-85
2022/04/22 03:03:43;;;;;;;14.07;7.70;;;9.30;99.90;;;;;;5096139;28;20024;-83
2022/04/22 03:06:09;;;;;;;14.18;8.13;;;9.20;99.90;;;;;;5095444;28;20034;-83
2022/04/22 03:08:35;;;;;;;13.65;7.65;;;9.20;99.90;;;;;;5096939;28;20342;-83
2022/04/22 03:11:00;;;;;;;19.27;8.90;;;9.20;99.90;;;;;;5096265;28;20356;-82
2022/04/22 03:13:26;;;;;;;16.15;8.93;;;9.10;99.90;;;;;;5095700;28;20528;-82
2022/04/22 03:15:52;;;;;;;16.77;8.02;;;9.20;99.90;;;;;;5095273;28;20039;-82
2022/04/22 03:18:19;;;;;;;17.55;8.38;;;9.20;99.90;;;;;;5095965;28;20309;-82
2022/04/22 03:20:45;;;;;;;16.15;8.40;;;9.20;99.90;;;;;;5095501;28;20106;-82
2022/04/22 03:23:10;;;;;;;17.65;8.63;;;9.20;99.90;;;;;;5094853;28;20479;-82
2022/04/22 03:25:36;;;;;;;17.20;9.27;;;9.20;99.90;;;;;;5095479;28;20034;-83
2022/04/22 03:28:05;;;;;;;16.60;8.95;;;9.20;99.90;;;;;;5095683;28;20505;-81
2022/04/22 03:30:34;;;;;;;17.50;9.02;;;9.20;99.90;;;;;;5095111;28;20056;-83
2022/04/22 03:33:00;;;;;;;16.75;9.45;;;9.20;99.90;;;;;;5095835;28;20044;-80
2022/04/22 03:35:26;;;;;;;18.20;9.43;;;9.20;99.90;;;;;;5094900;28;20028;-83
2022/04/22 03:37:52;;;;;;;20.65;9.65;;;9.20;99.90;;;;;;5095439;28;20027;-84
2022/04/22 03:40:17;;;;;;;18.25;9.32;;;9.10;99.90;;;;;;5094574;28;20027;-84
2022/04/22 03:42:43;;;;;;;18.60;10.00;;;9.10;99.90;;;;;;5096351;28;20012;-84
2022/04/22 03:45:11;;;;;;;18.65;9.30;;;9.10;99.90;;;;;;5094499;28;20050;-82
2022/04/22 03:47:37;;;;;;;15.60;9.23;;;9.10;99.90;;;;;;5094995;28;20047;-82
2022/04/22 03:50:03;;;;;;;17.65;9.88;;;9.10;99.90;;;;;;5095447;28;20027;-82
2022/04/22 03:52:28;;;;;;;18.40;9.95;;;9.10;99.90;;;;;;5095159;28;20031;-83
2022/04/22 03:54:54;;;;;;;17.42;9.23;;;9.00;99.90;;;;;;5095852;28;20372;-83
2022/04/22 04:00:04;;;;;;;19.17;10.18;;;9.00;99.90;;;;;;5095453;28;20369;-81
2022/04/22 04:02:30;;;;;;;17.60;9.57;;;9.00;99.90;;;;;;5094737;28;20031;-81
2022/04/22 04:04:55;;;;;;;22.77;11.35;;;9.00;99.90;;;;;;5094721;28;20369;-81
2022/04/22 04:07:21;;;;;;;16.88;9.98;;;9.00;99.90;;;;;;5093984;28;20070;-83
2022/04/22 04:17:59;;;;;;;19.08;10.27;;;8.90;99.90;;;;;;5095647;28;20046;-84
2022/04/22 04:23:14;;;;;;;23.27;10.45;;;8.90;99.90;;;;;;5085986;28;20116;-83
2022/04/22 04:25:41;;;;;;;18.95;10.35;;;8.90;99.90;;;;;;5089784;28;20050;-83
2022/04/22 04:28:10;;;;;;;17.25;10.27;;;8.90;99.90;;;;;;5089131;28;20047;-82
2022/04/22 04:30:37;;;;;;;19.08;10.68;;;8.90;99.90;;;;;;5090387;28;20024;-82
2022/04/22 04:33:04;;;;;;;19.77;10.07;;;8.80;99.90;;;;;;5089759;28;20016;-81
2022/04/22 04:35:30;;;;;;;19.40;9.27;;;8.80;99.90;;;;;;5090122;28;20066;-81
2022/04/22 04:37:56;;;;;;;18.52;9.68;;;8.80;99.90;;;;;;5090414;28;20020;-81
2022/04/22 04:40:21;;;;;;;19.42;9.50;;;8.80;99.90;;;;;;5087111;28;20365;-82
2022/04/22 04:42:47;;;;;;;18.00;9.73;;;8.90;99.90;;;;;;5091409;28;20532;-82
2022/04/22 04:45:13;;;;;;;14.85;8.75;;;8.80;99.90;;;;;;5090032;28;20042;-82
2022/04/22 04:47:40;;;;;;;16.13;8.20;;;8.90;99.90;;;;;;5090387;28;20064;-82
2022/04/22 04:50:06;;;;;;;18.17;9.15;;;8.80;99.90;;;;;;5089726;28;20030;-82
2022/04/22 04:52:33;;;;;;;19.50;9.23;;;8.80;99.90;;;;;;5087465;28;20048;-81
2022/04/22 04:54:59;;;;;;;16.88;8.73;;;8.90;99.90;;;;;;5091002;28;20035;-81
2022/04/22 04:57:24;;;;;;;16.48;8.90;;;8.80;99.90;;;;;;5089512;28;20039;-82
2022/04/22 04:59:50;;;;;;;17.08;10.05;;;8.80;99.90;;;;;;5090927;28;20036;-80
2022/04/22 05:02:16;;;;;;;18.15;9.65;;;8.80;99.90;;;;;;5090733;28;20051;-81
2022/04/22 05:04:42;;;;;;;15.68;8.70;;;8.80;99.90;;;;;;5090245;28;20047;-81
2022/04/22 05:07:07;;;;;;;17.05;9.38;;;8.80;99.90;;;;;;5089066;28;20411;-82
2022/04/22 05:09:33;;;;;;;14.85;8.20;;;8.80;99.90;;;;;;5089760;28;20055;-82
2022/04/22 05:11:58;;;;;;;17.15;9.00;;;8.80;99.90;;;;;;5090232;28;20024;-81
2022/04/22 05:14:26;;;;;;;17.95;8.68;;;8.80;99.90;;;;;;5089197;28;20020;-82
2022/04/22 05:16:54;;;;;;;15.80;8.38;;;8.80;99.90;;;;;;5091072;28;20081;-82
2022/04/22 05:19:21;;;;;;;18.15;9.65;;;8.80;99.90;;;;;;5089345;28;20028;-82
2022/04/22 05:21:47;;;;;;;18.95;9.20;;;8.70;99.90;;;;;;5086807;28;20020;-82
2022/04/22 05:24:13;;;;;;;19.83;9.23;;;8.60;99.90;;;;;;5089321;28;20507;-81
2022/04/22 05:26:39;;;;;;;16.33;9.32;;;8.60;99.90;;;;;;5091015;28;20514;-81
2022/04/22 05:29:04;;;;;;;17.13;8.82;;;8.70;99.90;;;;;;5089137;28;20020;-80
2022/04/22 05:34:14;;;;;;;15.60;8.80;;;8.80;99.90;;;;;;5088757;28;20031;-83
2022/04/22 05:36:40;;;;;;;16.40;8.77;;;8.80;99.90;;;;;;5090016;28;20475;-83
2022/04/22 05:39:08;;;;;;;19.55;10.13;;;8.80;99.90;;;;;;5090050;28;20055;-84
2022/04/22 05:41:35;;;;;;;18.88;10.20;;;8.80;99.90;;;;;;5089454;28;20023;-84
2022/04/22 05:44:04;;;;;;;17.83;9.57;;;8.80;99.90;;;;;;5090692;28;20070;-85
2022/04/22 05:46:29;;;;;;;19.40;10.50;;;8.90;99.90;;;;;;5086391;28;20355;-85
2022/04/22 05:48:55;;;;;;;19.65;9.95;;;8.90;99.90;;;;;;5089567;28;20350;-84
2022/04/22 05:51:20;;;;;;;18.95;9.75;;;8.90;99.90;;;;;;5089666;28;20028;-83
2022/04/22 05:53:48;;;;;;;16.77;9.65;;;8.90;99.90;;;;;;5089280;28;20049;-83
2022/04/22 05:56:13;;;;;;;19.38;10.38;;;9.00;99.90;;;;;;5088522;28;20039;-81
2022/04/22 05:58:39;;;;;;;16.92;9.35;;;9.00;99.90;;;;;;5089063;28;20548;-82
2022/04/22 06:01:05;;;;;;;17.42;9.57;;;9.00;99.90;;;;;;5090326;28;20077;-79
2022/04/22 06:03:31;;;;;;;17.75;10.15;;;9.00;99.90;;;;;;5088753;28;20032;-81
2022/04/22 06:05:57;;;;;;;18.50;10.20;;;9.10;99.90;;;;;;5089356;28;20476;-81
2022/04/22 06:11:06;;;;;;;21.35;10.65;;;9.00;99.90;;;;;;5093742;28;20904;-83
2022/04/22 06:13:32;;;;;;;19.83;10.50;;;9.10;99.90;;;;;;5093593;28;20455;-84
2022/04/22 06:15:58;;;;;;;19.70;9.80;;;9.10;99.90;;;;;;5093228;28;20024;-84
2022/04/22 06:18:23;;;;;;;19.98;10.40;;;9.20;99.90;;;;;;5094104;28;20047;-83
2022/04/22 06:20:51;;;;;;;18.25;10.23;;;9.20;99.90;;;;;;5092903;28;20028;-83
2022/04/22 06:23:16;;;;;;;20.80;10.50;;;9.20;99.90;;;;;;5092394;28;20016;-81
2022/04/22 06:25:45;;;;;;;26.85;11.82;;;9.20;99.90;;;;;;5093146;28;20029;-82
2022/04/22 06:28:12;;;;;;;26.23;12.32;;;9.30;99.90;;;;;;5092379;28;20023;-82
2022/04/22 06:30:40;;;;;;;25.40;12.10;;;9.30;99.90;;;;;;5093078;28;20046;-82
2022/04/22 06:33:07;;;;;;;22.83;11.23;;;9.40;99.90;;;;;;5092970;28;20027;-79
2022/04/22 06:35:33;;;;;;;21.42;11.43;;;9.40;99.90;;;;;;5092287;28;20042;-82
2022/04/22 06:38:01;;;;;;;22.50;11.60;;;9.40;99.90;;;;;;5093883;28;20020;-82
2022/04/22 06:45:55;;;;;;;22.95;11.52;;;9.50;99.90;;;;;;5091021;28;20031;-83
2022/04/22 06:48:26;;;;;;;22.20;11.48;;;9.50;99.90;;;;;;5089741;28;20029;-82
2022/04/22 06:50:52;;;;;;;23.27;11.20;;;9.60;99.90;;;;;;5092936;28;20449;-82
2022/04/22 06:53:20;;;;;;;21.63;11.70;;;9.60;99.90;;;;;;5090238;28;20024;-78
2022/04/22 06:55:47;;;;;;;21.85;11.77;;;9.60;99.90;;;;;;5093346;28;20039;-83
2022/04/22 06:58:15;;;;;;;24.15;12.18;;;9.70;99.90;;;;;;5091606;28;20087;-81
2022/04/22 07:00:42;;;;;;;22.27;11.75;;;9.70;99.90;;;;;;5092821;28;20107;-80
2022/04/22 07:03:09;;;;;;;22.88;11.85;;;9.80;99.90;;;;;;5093365;28;20023;-81
2022/04/22 07:05:36;;;;;;;21.63;11.40;;;9.90;99.90;;;;;;5093973;28;20020;-82
2022/04/22 07:08:03;;;;;;;21.83;11.25;;;9.90;99.90;;;;;;5094216;28;20163;-83
2022/04/22 07:10:30;;;;;;;28.05;12.10;;;9.90;99.90;;;;;;5094829;28;20485;-80
2022/04/22 07:12:57;;;;;;;23.55;12.40;;;10.00;99.90;;;;;;5095151;28;20016;-82
2022/04/22 07:15:23;;;;;;;23.90;12.52;;;10.00;99.90;;;;;;5094363;28;20036;-83
2022/04/22 07:17:49;;;;;;;22.75;11.93;;;10.20;99.90;;;;;;5092899;28;20490;-83
2022/04/22 07:20:15;;;;;;;22.77;12.32;;;10.30;99.90;;;;;;5092505;28;20114;-85
2022/04/22 07:22:42;;;;;;;23.17;11.75;;;10.40;99.90;;;;;;5090449;28;20020;-81
2022/04/22 07:25:09;;;;;;;19.05;10.80;;;10.50;99.90;;;;;;5092869;28;20024;-79
2022/04/22 07:27:37;;;;;;;19.98;10.98;;;10.60;99.90;;;;;;5092381;28;20463;-84
2022/04/22 07:30:05;;;;;;;21.83;11.90;;;10.70;99.90;;;;;;5095033;28;20444;-83
2022/04/22 07:32:31;;;;;;;24.77;11.57;;;10.80;99.90;;;;;;5092679;28;20041;-81
2022/04/22 07:34:57;;;;;;;20.33;11.57;;;10.80;99.90;;;;;;5090512;28;20464;-80
2022/04/22 07:37:23;;;;;;;22.40;11.75;;;10.90;99.90;;;;;;5091154;28;20048;-80
2022/04/22 07:39:49;;;;;;;19.85;11.48;;;11.00;99.90;;;;;;5091213;28;20016;-81
2022/04/22 07:42:21;;;;;;;22.33;11.98;;;11.10;99.90;;;;;;5091907;28;20028;-80
2022/04/22 07:47:34;;;;;;;18.88;10.32;;;11.20;99.90;;;;;;5090825;28;20077;-80
2022/04/22 07:50:05;;;;;;;22.17;11.35;;;11.30;99.90;;;;;;5091187;28;20032;-80
2022/04/22 07:52:31;;;;;;;18.48;10.57;;;11.30;99.90;;;;;;5089393;28;20139;-80
2022/04/22 07:54:57;;;;;;;19.98;10.85;;;11.40;99.90;;;;;;5092731;28;20058;-81
2022/04/22 07:57:23;;;;;;;19.73;11.27;;;11.50;99.90;;;;;;5093349;28;20040;-80
2022/04/22 07:59:49;;;;;;;17.60;10.43;;;11.60;99.90;;;;;;5090957;28;20060;-80
2022/04/22 08:02:15;;;;;;;16.88;10.35;;;11.60;99.90;;;;;;5090494;28;20024;-81
2022/04/22 08:04:41;;;;;;;18.55;10.88;;;11.60;99.90;;;;;;5091031;28;20058;-81
2022/04/22 08:07:07;;;;;;;17.40;10.45;;;11.60;99.90;;;;;;5086002;28;20028;-81
2022/04/22 08:09:33;;;;;;;18.42;10.23;;;11.70;99.90;;;;;;5088285;28;20031;-78
2022/04/22 08:12:00;;;;;;;17.70;10.18;;;11.70;99.90;;;;;;5090511;28;20388;-77
2022/04/22 08:14:27;;;;;;;19.25;10.88;;;11.70;99.90;;;;;;5086465;28;20418;-79
2022/04/22 08:16:54;;;;;;;18.83;10.60;;;11.70;99.90;;;;;;5089586;28;20051;-78
2022/04/22 08:19:20;;;;;;;20.33;10.35;;;11.70;99.90;;;;;;5089538;28;20035;-78
2022/04/22 08:21:46;;;;;;;17.50;10.20;;;11.70;99.90;;;;;;5091547;28;20028;-79
2022/04/22 08:24:11;;;;;;;20.08;10.43;;;11.80;99.90;;;;;;5091844;28;20381;-77
2022/04/22 08:26:38;;;;;;;18.98;10.38;;;11.80;99.90;;;;;;5090588;28;20732;-77
2022/04/22 08:29:03;;;;;;;18.75;10.40;;;11.90;99.90;;;;;;5091005;28;20115;-76
2022/04/22 08:31:29;;;;;;;20.42;10.35;;;11.90;99.90;;;;;;5089431;28;20486;-77
2022/04/22 08:33:58;;;;;;;15.57;9.48;;;11.90;99.90;;;;;;5091629;28;20107;-78
2022/04/22 08:36:24;;;;;;;17.40;9.35;;;12.00;99.90;;;;;;5089679;28;20036;-79
2022/04/22 08:38:50;;;;;;;18.05;10.02;;;12.00;99.90;;;;;;5089633;28;20059;-76
2022/04/22 08:41:20;;;;;;;17.27;9.38;;;12.00;99.60;;;;;;5092056;28;20465;-78
2022/04/22 08:43:46;;;;;;;16.92;10.18;;;12.10;99.90;;;;;;5092762;28;20016;-78
2022/04/22 08:51:43;;;;;;;24.70;9.52;;;12.20;99.90;;;;;;5094557;28;20157;-79
2022/04/22 08:54:10;;;;;;;29.05;9.93;;;12.30;99.90;;;;;;5094630;28;20028;-78
2022/04/22 08:56:38;;;;;;;22.23;10.32;;;12.40;99.90;;;;;;5093272;28;20036;-79
2022/04/22 08:59:04;;;;;;;20.02;9.20;;;12.40;99.40;;;;;;5095540;28;20052;-80
2022/04/22 09:01:29;;;;;;;21.40;10.10;;;12.40;99.90;;;;;;5096696;28;20039;-80
2022/04/22 09:03:55;;;;;;;22.70;10.23;;;12.40;99.90;;;;;;5094945;28;20021;-77
2022/04/22 09:06:23;;;;;;;19.40;9.52;;;12.50;99.90;;;;;;5093696;28;20103;-77
2022/04/22 09:08:50;;;;;;;17.13;9.77;;;12.60;99.90;;;;;;5094674;28;20024;-79
2022/04/22 09:11:16;;;;;;;18.38;9.20;;;12.50;99.50;;;;;;5093564;28;20024;-76
2022/04/22 09:13:42;;;;;;;15.50;8.70;;;12.60;99.80;;;;;;5093837;28;20441;-78
2022/04/22 09:16:08;;;;;;;16.55;9.18;;;12.60;99.40;;;;;;5094483;28;20032;-81
2022/04/22 09:18:37;;;;;;;16.63;9.57;;;12.80;99.90;;;;;;5096457;28;20020;-82
2022/04/22 09:21:06;;;;;;;12.93;8.10;;;12.90;99.90;;;;;;5095473;28;20173;-86
2022/04/22 09:23:36;;;;;;;18.10;9.27;;;12.90;98.70;;;;;;5092620;28;20024;-81
2022/04/22 09:26:04;;;;;;;16.70;9.40;;;12.90;98.30;;;;;;5092885;28;20028;-81
2022/04/22 09:28:30;;;;;;;15.00;8.52;;;12.90;98.40;;;;;;5091906;28;20117;-81
2022/04/22 09:31:03;;;;;;;14.25;9.20;;;13.00;98.00;;;;;;5093847;28;20035;-80
2022/04/22 09:33:41;;;;;;;15.20;8.05;;;13.00;97.20;;;;;;5092315;28;20043;-81
2022/04/22 09:44:24;;;;;;;14.02;8.43;;;13.10;96.60;;;;;;5092807;28;20061;-83
2022/04/22 09:47:12;;;;;;;12.48;8.00;;;13.20;96.50;;;;;;5093724;28;20053;-82
2022/04/22 09:49:40;;;;;;;16.00;8.50;;;13.20;95.70;;;;;;5094081;28;20016;-83
2022/04/22 09:52:06;;;;;;;16.20;9.00;;;13.20;95.60;;;;;;5092745;28;20086;-82
2022/04/22 09:54:31;;;;;;;14.73;8.27;;;13.30;96.20;;;;;;5092189;28;20170;-83
2022/04/22 09:57:00;;;;;;;14.05;7.90;;;13.20;95.30;;;;;;5092306;28;20062;-83
2022/04/22 09:59:27;;;;;;;13.40;7.88;;;13.30;95.60;;;;;;5092368;28;20076;-84
2022/04/22 10:01:53;;;;;;;15.55;8.00;;;13.50;96.90;;;;;;5092456;28;20024;-83
2022/04/22 10:04:22;;;;;;;14.73;8.02;;;13.50;95.60;;;;;;5093347;28;20036;-82
2022/04/22 10:06:49;;;;;;;14.65;8.02;;;13.60;96.60;;;;;;5092423;28;20036;-83
2022/04/22 10:09:15;;;;;;;13.25;7.65;;;13.70;96.50;;;;;;5093400;28;20468;-83
2022/04/22 10:11:43;;;;;;;14.07;7.75;;;13.80;96.70;;;;;;5093351;28;20086;-83
2022/04/22 10:14:10;;;;;;;14.93;7.57;;;13.90;96.60;;;;;;5092571;28;20024;-82
2022/04/22 10:16:36;;;;;;;11.70;7.70;;;14.00;95.90;;;;;;5091356;28;20031;-83
2022/04/22 10:19:02;;;;;;;12.82;7.50;;;14.00;94.60;;;;;;5092214;28;20033;-82
2022/04/22 10:21:28;;;;;;;13.63;7.88;;;14.10;94.90;;;;;;5092634;28;20024;-82
2022/04/22 10:23:56;;;;;;;13.30;7.35;;;14.00;95.20;;;;;;5093218;28;20725;-82
2022/04/22 10:26:23;;;;;;;13.35;7.65;;;14.20;95.90;;;;;;5091653;28;20023;-81
2022/04/22 10:28:49;;;;;;;13.30;7.07;;;14.30;95.50;;;;;;5091741;28;20504;-82
2022/04/22 10:31:16;;;;;;;10.85;7.22;;;14.30;95.60;;;;;;5091781;28;20032;-83
2022/04/22 10:33:46;;;;;;;11.35;7.35;;;14.40;95.60;;;;;;5091890;28;20673;-81
2022/04/22 10:36:14;;;;;;;12.35;7.22;;;14.50;94.10;;;;;;5091966;28;20020;-80
2022/04/22 10:38:42;;;;;;;11.90;7.38;;;14.60;93.80;;;;;;5091423;28;20035;-82
2022/04/22 10:41:19;;;;;;;12.80;7.30;;;14.60;92.80;;;;;;5091901;28;20516;-83
2022/04/22 10:49:15;;;;;;;12.80;7.07;;;14.80;93.70;;;;;;5093317;28;20035;-83
2022/04/22 10:52:02;;;;;;;10.75;6.80;;;14.70;92.50;;;;;;5091568;28;20024;-82
2022/04/22 10:54:53;;;;;;;12.10;7.53;;;14.80;91.70;;;;;;5093687;28;20024;-82
2022/04/22 10:57:24;;;;;;;10.95;6.70;;;14.90;91.90;;;;;;5095514;28;20048;-79
2022/04/22 11:00:27;;;;;;;11.43;6.40;;;15.00;92.80;;;;;;5080451;28;20054;-82
2022/04/22 11:03:08;;;;;;;11.27;6.82;;;15.10;93.20;;;;;;5095316;28;20047;-84
2022/04/22 11:05:34;;;;;;;9.48;6.88;;;15.30;92.40;;;;;;5094586;28;20039;-83
2022/04/22 11:08:01;;;;;;;11.63;6.82;;;15.40;92.90;;;;;;5094727;28;20028;-83
2022/04/22 11:10:48;;;;;;;9.80;6.10;;;15.60;92.90;;;;;;5094778;28;20028;-82
2022/04/22 11:13:50;;;;;;;9.05;5.90;;;15.60;93.30;;;;;;5088205;28;20230;-83
2022/04/22 11:16:30;;;;;;;12.73;6.88;;;15.80;92.10;;;;;;5083487;28;20023;-83
2022/04/22 11:19:33;;;;;;;10.98;6.85;;;15.90;91.00;;;;;;5095583;28;20457;-80
2022/04/22 11:21:58;;;;;;;9.82;6.50;;;16.00;90.20;;;;;;5037227;28;20029;-81
2022/04/22 11:24:31;;;;;;;9.82;5.90;;;15.90;88.30;;;;;;5086955;28;20044;-79
2022/04/22 11:27:08;;;;;;;12.07;6.40;;;15.90;87.20;;;;;;5094321;28;20028;-83
2022/04/22 11:29:34;;;;;;;10.05;7.10;;;15.90;87.00;;;;;;5095148;28;20039;-81
2022/04/22 11:32:20;;;;;;;9.35;6.10;;;16.00;86.60;;;;;;5094904;28;20028;-81
2022/04/22 11:35:10;;;;;;;9.93;6.88;;;16.10;88.00;;;;;;5094091;28;20027;-81
2022/04/22 11:37:37;;;;;;;9.98;6.07;;;16.20;86.60;;;;;;5094291;28;20045;-81
2022/04/22 11:40:06;;;;;;;11.48;6.30;;;16.20;87.10;;;;;;5095737;28;20020;-82
2022/04/22 11:42:37;;;;;;;9.52;6.15;;;16.40;87.40;;;;;;5093775;28;20481;-81
2022/04/22 11:45:15;;;;;;;8.80;5.57;;;16.60;88.50;;;;;;5094887;28;20028;-81
2022/04/22 11:47:42;;;;;;;10.43;6.22;;;16.60;88.10;;;;;;5094104;28;20067;-82
2022/04/22 11:50:09;;;;;;;9.50;6.20;;;16.70;84.70;;;;;;5095694;28;20020;-81
2022/04/22 11:52:35;;;;;;;8.40;5.75;;;16.80;84.20;;;;;;5095130;28;20456;-81
2022/04/22 11:55:04;;;;;;;13.20;6.97;;;16.90;85.10;;;;;;5094607;28;20055;-81
2022/04/22 11:57:37;;;;;;;10.80;5.97;;;17.00;86.50;;;;;;5093945;28;20072;-80
2022/04/22 12:05:47;;;;;;;9.43;5.88;;;17.20;81.80;;;;;;5094156;28;20081;-80
2022/04/22 12:08:15;;;;;;;8.77;6.20;;;17.20;77.60;;;;;;5095174;28;20024;-82
2022/04/22 12:10:48;;;;;;;7.80;5.22;;;17.30;79.20;;;;;;5093854;28;20028;-84
2022/04/22 12:13:15;;;;;;;8.55;5.78;;;17.40;79.40;;;;;;5095476;28;20032;-84
2022/04/22 12:15:46;;;;;;;10.00;5.85;;;17.60;79.90;;;;;;5093784;28;20127;-79
2022/04/22 12:18:45;;;;;;;9.30;5.60;;;17.70;78.40;;;;;;5094044;28;20050;-80
2022/04/22 12:21:12;;;;;;;9.80;5.65;;;17.90;78.80;;;;;;5050592;28;20127;-79
2022/04/22 12:23:40;;;;;;;9.02;6.45;;;18.00;78.60;;;;;;5092715;28;20078;-80
2022/04/22 12:26:13;;;;;;;10.05;5.85;;;18.10;74.70;;;;;;5093393;28;20032;-80
2022/04/22 12:28:55;;;;;;;9.07;6.28;;;18.20;73.00;;;;;;5092895;28;20059;-80
2022/04/22 12:31:22;;;;;;;6.70;5.45;;;18.30;74.50;;;;;;5094051;28;20358;-82
2022/04/22 12:33:56;;;;;;;7.82;5.47;;;18.40;71.90;;;;;;5094379;28;20453;-82
2022/04/22 12:36:22;;;;;;;7.93;5.57;;;18.60;74.00;;;;;;5093677;28;20035;-83
2022/04/22 12:38:47;;;;;;;9.45;5.97;;;18.80;72.70;;;;;;5094037;28;20020;-82
2022/04/22 12:41:23;;;;;;;12.20;6.13;;;18.90;69.40;;;;;;5094719;28;20063;-81
2022/04/22 12:43:54;;;;;;;8.57;5.90;;;18.80;68.30;;;;;;5094115;28;20020;-83
2022/04/22 12:52:09;;;;;;;7.93;5.13;;;19.40;68.20;;;;;;5094037;28;20076;-81
2022/04/22 12:54:37;;;;;;;7.40;5.15;;;19.60;66.70;;;;;;5092494;28;20540;-80
2022/04/22 12:57:05;;;;;;;8.40;5.43;;;19.90;66.90;;;;;;5093093;28;20411;-82
2022/04/22 12:59:49;;;;;;;6.82;5.20;;;20.20;65.10;;;;;;5093053;28;20028;-82
2022/04/22 13:02:15;;;;;;;7.88;5.13;;;20.30;65.00;;;;;;5094237;28;20024;-87
2022/04/22 13:04:52;;;;;;;10.25;4.90;;;20.60;64.50;;;;;;5093367;28;20042;-87
2022/04/22 13:07:18;;;;;;;9.27;6.20;;;20.60;64.00;;;;;;5094623;28;20056;-87
2022/04/22 13:09:47;;;;;;;7.30;5.47;;;20.40;61.80;;;;;;5095913;28;20024;-86
2022/04/22 13:12:13;;;;;;;10.30;4.93;;;20.40;62.40;;;;;;5093624;28;20035;-87
2022/04/22 13:14:40;;;;;;;6.10;5.03;;;20.80;62.00;;;;;;5092736;28;20377;-86
2022/04/22 13:17:05;;;;;;;8.55;4.65;;;21.10;61.10;;;;;;5092807;28;20119;-86
2022/04/22 13:19:31;;;;;;;7.97;4.95;;;21.40;60.40;;;;;;5091676;28;20523;-85
2022/04/22 13:21:57;;;;;;;7.43;5.10;;;21.90;59.40;;;;;;5093629;28;20461;-86
2022/04/22 13:24:23;;;;;;;9.38;5.63;;;22.20;57.80;;;;;;5093214;28;20031;-85
2022/04/22 13:26:49;;;;;;;5.95;4.95;;;22.70;56.90;;;;;;5094167;28;20032;-85
2022/04/22 13:29:15;;;;;;;7.57;5.30;;;23.30;57.70;;;;;;5092891;28;20609;-85
2022/04/22 13:31:42;;;;;;;8.75;5.40;;;23.60;56.20;;;;;;5093141;28;20031;-86
2022/04/22 13:34:08;;;;;;;8.43;5.22;;;23.70;52.20;;;;;;5093225;28;20024;-85
2022/04/22 13:36:37;;;;;;;6.78;4.93;;;23.50;53.30;;;;;;5092573;28;20545;-84
2022/04/22 13:39:03;;;;;;;5.75;4.05;;;23.70;52.90;;;;;;5093881;28;20085;-84
2022/04/22 13:41:29;;;;;;;7.38;4.95;;;24.20;52.70;;;;;;5092745;28;20453;-84
2022/04/22 13:43:56;;;;;;;7.80;4.35;;;24.10;51.10;;;;;;5092202;28;20020;-85
2022/04/22 13:54:45;;;;;;;7.85;4.78;;;24.90;49.70;;;;;;5094054;28;20039;-84
2022/04/22 13:57:10;;;;;;;7.15;4.75;;;24.90;49.40;;;;;;5096684;28;20415;-85
2022/04/22 13:59:36;;;;;;;4.90;4.20;;;24.90;49.00;;;;;;5098194;28;20028;-84
2022/04/22 14:02:02;;;;;;;8.13;4.57;;;24.70;49.30;;;;;;5096290;28;20058;-84
2022/04/22 14:04:29;;;;;;;8.32;4.07;;;24.50;51.00;;;;;;5093727;28;20483;-85